Deadwood, SD (57732)

9:04 AM MST on February 14, 2016 (GMT -0700)
Dumont Trailhead | | Change Station
CLOSE
Current Station
Personal Weather Station
Location: Lead, SD
Elevation: 6070 ft
Nearby Weather Stations

Elev 6070 ft 44.23 °N, 103.78 °W | Updated 3 minutes ago

Partly Cloudy
Partly Cloudy
25.5 °F
Feels Like 21 °F
N
4.0
Wind Variable Wind from West
Gusts 6.0 mph

Today
High -- | Low -- °F
--% Chance of Precip.
Yesterday
High -- | Low -- °F
Precip. -- in
Pressure 29.81 in
Visibility -9999.0 miles
Clouds Clear
Windchill 21 °F
Dew Point 20 °F
Humidity 79%
Rainfall 0.00 in
Snow Depth Not available.
6:56 AM 5:22 PM
Waxing Crescent, 43% visible
METAR KSPF 141535Z AUTO 26009KT CLR 01/M04 A2981 RMK AO2
Pressure 29.81 in
Visibility -9999.0 miles
Clouds Clear
Windchill 21 °F
Dew Point 20 °F
Humidity 79%
Rainfall 0.00 in
Snow Depth Not available.
6:56 AM 5:22 PM
Waxing Crescent, 43% visible
METAR KSPF 141535Z AUTO 26009KT CLR 01/M04 A2981 RMK AO2

10-Day Weather Forecast

Almanac

Astronomy

Feb. 14, 2016 Rise Set
Actual Time
Civil Twilight
Nautical Twilight
Astronomical Twilight
Moon
Length of Visible Light
Length of Day
Tomorrow will be .
, % of the Moon is Illuminated

Today's Extremes

State Highs State Lows

Community

WunderPhotos

Upload Photos

1,892,819 photos uploaded!

WunderBlog® & News

Nearby

Air Quality

  Air Quality AQ Index Pollutant
Not available.

Snow Depth

Station Depth Elevation

Earthquake Activity

City Distance Mag. Time & Date
Minimum magnitude displayed is 2.5.

Coastal Water Temperatures

Place Temperature

Stations

Nearby Weather Stations

Station Location Temp. Windchill Dew Point Humidity Wind Precip. Elev Updated Type
                   

Watches & Warnings

There are currently no watches in effect.